Oldwick, New Jersey
Current Conditions -  °F | °C
As of 9:53 PM on Wednesday 22 Oct 2014 (Local Time) from KSMQ Reporting Station
Light Rain Light Rain  
Wind Chill: 53°   Ceiling: 3500
Heat Index: 53°   Visibility: 7mi
Dew Point: 48°   Wind: 10mph
Humidity: 83%   Direction: 350°N
Pressure: 29.79"   Gusts: NA
Location:  40.67°N, 74.75°W
Report Text: KSMQ 230153Z AUTO 35009KT 7SM -RA FEW023 SCT027 OVC035 12/09 A2979 RMK AO2 SLP087 P0003 T01170089
Loading
Personal Weather Stations






























Interactive Weather Map
Tropical Storm Tracking
New forecast layout! Learn more

10-Day Weather Forecast

Advertisements
Track Severe Weather on mobile